Terminal Aerodrome Forecast
Issued by NWS Albany, NY

Home | Current Version | Previous Version | Text Only | Print | Product List | Glossary On
Versions: 1 2 3 4 5 6 7 8 9 10 11 12 13 14 15 16 17 18 19 20 21
000
FTUS41 KALY 301737
TAFGFL
TAF
KGFL 301737Z 3018/3118 19010G18KT P6SM SCT050 BKN250
     FM302000 23010KT P6SM BKN050
     FM302300 24005KT P6SM SCT250
     FM310400 VRB03KT P6SM SKC
     FM310800 00000KT 2SM BR SCT005
     FM311200 24008KT P6SM SKC=

USA.gov is the U.S. government's official web portal to all federal, state and local government web resources and services.